Nkitten

Nkitten

Views:
415,539
Subscribers:
195
Videos:
241
Duration:
3:11:01:01

Nkitten is a content creator on YouTube with 195 subscribers. He published 241 videos which altogether total at least 415.54 thousand views.

Created on ● Channel Link: https://www.youtube.com/channel/UCBzJcGfZvYN_q6Od9_pB_Jw





All Videos by Nkitten



PublishedVideo TitleDurationViewsCategoryGame
2015-10-05[Aperture Tag] The correct and intended solution! :32:2287Aperture Tag
2015-10-05Tag: The Power of Paint - Beat the Game in 11:3311:58100Tag: The Power of Paint
2015-06-08Super Mario 64 - 70 Star in 1:08:041:13:25109
2015-04-24Crypt of the Necrodancer Cutscenes (Melody)2:368,074Crypt of the NecroDancer
2015-04-24Crypt of the Necrodancer Cutscenes (Cadence) + Credits6:249,314Crypt of the NecroDancer
2015-04-24[NecroDancer - Daily Challenge] 24/04/20159:4437Crypt of the NecroDancer
2014-12-07Super Mario Sunshine - any% in 1:28:161:34:37114Super Mario Sunshine
2014-10-26Super Mario Sunshine - any% in 1:29:221:34:1837Super Mario Sunshine
2014-10-25SMS Weekly Bingo - 25/10/201454:1544Super Mario 64
2014-10-19Hide and Seek2:3552Counter-Strike 2
2014-09-20SMS Tasks Compilation (Season 2 / 2013)8:50100Super Mario 64 DS
2014-08-26Mario Party - Mini-Game Island 100% in 46:4747:247,301Mario Party
2014-08-20Swap Fest1:4178Mario Party 6
2014-08-20Bowser's Big Balls1:39204Mario Party 6
2014-08-20It's time to duel!2:33150Mario Party 6
2014-08-17[NecroDancer - Daily Challenge] 17/08/201422:1221Crypt of the NecroDancer
2014-08-17[NecroDancer - Daily Challenge] 16/08/201422:1321Crypt of the NecroDancer
2014-08-17[NecroDancer - Daily Challenge] 15/08/20144:589Crypt of the NecroDancer
2014-08-14[NecroDancer - Daily Challenge] 14/08/201411:026Crypt of the NecroDancer
2014-08-13Next level Counter-Strike plays!1:03118Counter-Strike 2
2014-08-13[NecroDancer - Daily Challenge] 13/08/201410:3611Crypt of the NecroDancer
2014-08-12[NecroDancer - Daily Challenge] 12/08/201413:5711Crypt of the NecroDancer
2014-08-11[NecroDancer - Daily Challenge] 11/08/20147:468Crypt of the NecroDancer
2014-08-10[NecroDancer - Daily Challenge] 10/08/201418:0415Crypt of the NecroDancer
2014-04-30Super Mario Sunshine - any% in 1:30:171:36:5570Super Mario Sunshine
2014-04-19Super Mario Sunshine - 120 Shines in 3:58:064:02:57227Super Mario Sunshine
2014-04-03Gold Leaf Galaxy 1 tutorial1:2657Super Mario Galaxy
2014-03-24Super Mario Sunshine - 120 Shines in 4:01:154:05:40273Super Mario Sunshine
2014-03-12How to lose a race0:28113
2014-02-11SMS Lockout Bingo #2 (10/02/2014)1:20:21305Super Mario Sunshine
2014-02-11SMS Lockout Bingo #1 (10/02/2014)1:10:401,128Super Mario Sunshine
2014-01-22Speedlunky (6:02:165)11:3974Spelunky
2013-12-09Super Mario Sunshine - any% in 1:39:341:44:1385Super Mario Sunshine
2013-12-08I Wanna Be The Yamata1:18116Super Mario Sunshine
2013-12-03Choose quickly!1:4689Mario Party DS
2013-12-03Skill Time!1:2653Mario Party 3
2013-11-11Mario Party - Mini-Game Island any% in 35:1636:151,681Mario Party
2013-11-02Mario Party - Mini-Game Island any% in 36:2637:01110Mario Party
2013-11-02[SMS Tasks 2013] Task 8 - NAILED IT!0:41149Super Mario Sunshine
2013-10-31Mario Party - Mini-Game Island any% in 36:5937:24129Mario Party
2013-10-27cool game1:1985Super Mario Sunshine
2013-09-08[Spelunky - Daily Challenge] 08/09/201314:086Spelunky
2013-09-07[Spelunky - Daily Challenge] 07/09/201337:524Spelunky
2013-09-06[Spelunky - Daily Challenge] 06/09/201323:562Spelunky
2013-09-06[Spelunky - Daily Challenge] 05/09/201325:544Spelunky
2013-09-05[Spelunky - Daily Challenge] 04/09/201314:423Spelunky
2013-09-04[Spelunky - Daily Challenge] 03/09/20135:015Spelunky
2013-09-02[Spelunky - Daily Challenge] 02/09/201327:4317Spelunky
2013-09-01[Spelunky - Daily Challenge] 01/09/20136:592Spelunky
2013-08-31[Spelunky - Daily Challenge] 31/08/201320:161Spelunky
2013-08-30[Spelunky - Daily Challenge] 30/08/201328:082Spelunky
2013-08-30[Rayman Legends] Daily Extreme Challenge 29/08/20132:1164Rayman Legends
2013-08-29[Spelunky - Daily Challenge] 29/08/201344:4510Spelunky
2013-08-28[Spelunky - Daily Challenge] 28/08/20139:413Spelunky
2013-08-27[Spelunky - Daily Challenge] 27/08/201314:502Spelunky
2013-08-26[Spelunky - Daily Challenge] 26/08/201349:018Spelunky
2013-08-25[Spelunky - Daily Challenge] 25/08/201320:178Spelunky
2013-08-24[Spelunky - Daily Challenge] 24/08/201333:496Spelunky
2013-08-23[Spelunky - Daily Challenge] 23/08/2013 (aaaand.. dead)5:5712Spelunky
2013-08-23[Spelunky - Daily Challenge] 22/08/201313:031Spelunky
2013-08-21[Spelunky - Daily Challenge] 21/08/201321:197Spelunky
2013-08-20[Spelunky - Daily Challenge] 20/08/201340:0216Spelunky
2013-08-20[Spelunky - Daily Challenge] 19/08/201313:164Spelunky
2013-08-19[Spelunky - Daily Challenge] 18/08/201332:255Spelunky
2013-08-17Billy Hatcher - any% in 1:27:101:33:5447Billy Hatcher and the Giant Egg
2013-08-16[Spelunky - Daily Challenge] 15/08/201315:2414Spelunky
2013-08-14[Spelunky - Daily Challenge] 14/08/201317:387Spelunky
2013-08-13[Spelunky - Daily Challenge] 13/08/20134:5714Spelunky
2013-08-10Typical Mario 641:0155Super Mario 64
2013-08-09Perfect Secret of Casino Delfino1:2197Super Mario 64
2013-08-08I am good at minecraft0:4049Minecraft
2013-07-22Cat Planet - 100% in 5:215:34101
2013-07-18uhm...0:3436Mega Man Unlimited
2013-05-31Super Mario 64 - 120 Star in 2:42:29 (1/2)22:2387Super Mario 64
2013-05-31Super Mario 64 - 120 Star in 2:42:29 (2/2)2:25:01107Super Mario 64
2013-05-28[Rush Bros.] Door Gauntlet1:2070
2013-05-01My SMS task entries7:33120Super Mario Sunshine
2013-04-15Nice BLJ0:30107Super Mario 64
2013-04-15Why I play SMS0:57120Super Mario 64
2013-04-14Super Mario 64 - 16 star in 21:2126:4157Super Mario 64
2013-04-05Super Mario Sunshine - any% in 1:43:141:48:03206Super Mario Sunshine
2013-04-05Super Mario 64 - 16 star in 21:5427:1331Super Mario 64
2013-03-30[Dustforce] Peta Difficult (SS)1:0068Dustforce
2013-03-30[Dustforce] Zetta Difficult (SS)1:3638Dustforce
2013-03-30[Dustforce] Mega Difficult - 0:42.132 (SS)1:1542Dustforce
2013-03-18I wonder..1:06123Super Mario Sunshine
2013-03-08Hide and Sneak1:32163Disney's Hide and Sneak
2013-03-08Teamwork0:5140Mario Party 3
2013-03-08Amazing Tower1:0355Mario Party 3
2013-03-08Puzzle Party2:0844Mario Party 3
2013-03-06Community Versus - Kokiri Kurrency1:4460The Legend of Zelda: Ocarina of Time
2013-03-05Balloons2:3849Super Mario Sunshine
2013-03-05Super Mario 64 - 120 Star in 2:55:383:01:02233Super Mario 64
2013-02-28Runner2 Ending2:01625Runner2: Future Legend of Rhythm Alien
2013-02-22Community Versus - BitDW red coins1:4370Super Mario 64
2013-02-14Community Versus - WF 100 coins1:29118Super Mario 64
2013-02-01[Dustforce] Mega Difficult (SS)1:1185Dustforce
2013-01-26[Dustforce] Exa Difficult (SS)0:5943Dustforce
2013-01-24cool gravity0:2965Super Mario Galaxy 2
2012-12-13[Dustforce] Wild Den - 0:12.100 (SS)0:37111Dustforce